Latest METARs, TAFs and NOTAMs for LIRQ


---------------------------------------------------------------------------
	(OBSERVATIONS)
LIRQ 212320Z 21004KT 9999 FEW030 24/21 Q1010=
LIRQ 212250Z VRB02KT 9999 FEW030 24/21 Q1010=
LIRQ 212220Z 21004KT 9999 FEW030 25/20 Q1010=
LIRQ 212150Z 25004KT 9999 FEW030 26/21 Q1010=
LIRQ 212120Z 26003KT 220V280 9999 FEW030 26/20 Q1010=
LIRQ 212050Z 27003KT CAVOK 25/20 Q1010=
---------------------------------------------------------------------------
	(FC)
Sorry, FC For LIRQ Not Found
---------------------------------------------------------------------------
	(TERMINAL AREA FORECAST)
LIRQ 212300Z 2200/2224 VRB05KT 9999 SCT030
    TEMPO 2206/2209 SHRA
    BECMG 2208/2210 22012KT
    TEMPO 2209/2212 TSRA=
---------------------------------------------------------------------------
	(NOTAMS)


LIRQ B2184/17 REF AOC TYPE B NR RQ 3/3 NEW OBSTACLE ERECTED BUILDING
    PENETRATING TAKE-OFF CLIMB SURFACE RWY05 (IN CURVE) POINTS
    PSN COORD (WGS-84): - 434929.7N 0111314.4E - 434928.3N 0111316.0E
    - 434929.2N 0111317.1E - 434930.4N 0111315.5E - 434929.7N
    0111314.4E MAX ELEV AGL 16.6M/54.5FT MAX ELEV AMSL 75.1M/246.4FT
    ICAO SIGNAL UNPROVIDED. 03 MAY 08:27 2017 UNTIL PERM. CREATED:
    03 MAY 08:27 2017

LIRQ B2432/18 CIRCLING RWY 23 TEMPORARILY NOT ALLOWED FOR FLW
    INSTRUMENT APPROACH PROCEDURES: - ILS Z RWY 05 CAT A/B/C
    - ILS Y RWY 05 CAT A/B/C - RNAV (GNSS) Z RWY 05 CAT A/B/C
    - RNAV (GNSS) Y RWY 05 CAT A/B/C - VOR RWY 05 CAT A/B/C -
    LOC Z RWY 05 CAT A/B/C - LOC Y RWY 05 CAT A/B/C REF AIP AD
    2 LIRQ 5. 27 APR 11:16 2018 UNTIL 25 JUL 23:59 2018 ESTIMATED.
    CREATED: 27 APR 11:16 2018

LIRQ B3181/18 REF AIP GEN 3.5 'METEOROLOGICAL SERVICES' PARAGRAPH
    3 'METEOROLOGICAL OBSERVATIONS AND REPORTS' POINT 3.1 'AIRPORTS
    UNDER ENAV SPA JURISDICTION' SUBPOINT 3.1.5 'CLOUDS' REMOVE
    LIRQ AD (FIRENZE/PERETOLA) FROM THE LIST OF AERODROMES REPORTED
    IN THE REMARK THEREFORE AT FIRENZE/PERETOLA WHEN APPLICABLE,
    VERTICAL VISIBILITY IS PROVIDED IN OBSERVATION REPORTS. 31
    MAY 09:02 2018 UNTIL PERM. CREATED: 31 MAY 09:02 2018

LIRQ B3244/18 REF AIP GEN 3.5 'METEOROLOGICAL SERVICES' ITEM
    3 'METEOROLOGICAL OBSERVATION AND REPORTS' PARAGRAPH 3.1
    'AIRPORT UNDER ENAV SPA (ITALIAN AGENCY FOR AIR NAVIGATION
    SERVICES) JURISDICTION' SUBPARAGRAPH 3.1.3 'RVR' DELETE 'FIRENZE/PERETOLA
    AD' (LIRQ) FROM THE LIST IN REMARK REFERRED TO AIRPORTS FOR
    WHICH THE RVR COMPUTING, FOR LOCAL ROUTINE AND SPECIAL REPORTS
    IS ALWAYS MADE CONSIDERING THE MAXIMUN RWY LGT INTENSITY
    (100 PERCENT. 01 JUN 18:22 2018 UNTIL PERM. CREATED: 01 JUN
    18:22 2018

LIRQ B3349/18 INSTRUMENT APPROACH PROCEDURE. FLW RESTRICTIONS
    APPLY DUE TO ACT ANNOUNCED BY NOTAM W1333/18 AND W1334/18:
    1. A) ILS Z RWY 05 M.A. MNM CLIMB GRADIENT 3.5PER CENT: -
    MODIFY OCA(OCH) CAT A TO 960(837) INSTEAD OF 610(487) - MODIFY
    OCA(OCH) CAT B TO 977(849) INSTEAD OF 622(499) - MODIFY OCA(OCH)
    CAT C TO 980(857) INSTEAD OF 630(507) B) ILS Z RWY 05 M.A.
    MNM CLIMB GRADIENT 2.5PER CENT: - MODIFY OCA(OCH) CAT A TO
    970(847) INSTEAD OF 820(697) - MODIFY OCA(OCH) CAT B TO 982(859)
    INSTEAD OF 832(709) - MODIFY OCA(OCH) CAT C TO 990(867) INSTEAD
    OF 840(717) 2. RNAV (GNSS) Z RWY 05 LNAV/VNAV M.A.: - MODIFY
    OCA(OCH) CAT A TO 1020(897) INSTEAD OF 920(797) - MODIFY
    OCA(OCH) CAT B TO 1032(909) INSTEAD OF 932(809) - MODIFY
    OCA(OCH) CAT C TO 1040(917) INSTEAD OF 940(817) 3. RNAV (GNSS)
    Y RWY 05 LPV M.A.: - MODIFY OCA(OCH) CAT A TO 985(862) INSTEAD
    OF 730(607) - MODIFY OCA(OCH) CAT B TO 997(874) INSTEAD OF
    742(619) - MODIFY OCA(OCH) CAT C TO 1005(882) INSTEAD OF
    750(627) REF AIP AD 2 LIRQ 5. DAILY SR-SS, 10 JUN 00:00 2018
    UNTIL 07 SEP 23:59 2018. CREATED: 06 JUN 09:58 2018

LIRQ B3628/18 LDG OPS FOR RWY23 AVAILABLE AS FLW: -IFR TFC NOT
    ALLOWED. -VFR TFC ALLOWED WITH HELICOPTER OR LOCAL AEROCLUB
    ACFT ONLY. REF AIP AD 2 LIRQ 2-1 AND 1-12. DAILY SR-SS, 16
    JUN 07:52 2018 UNTIL 25 JUL 18:47 2018 ESTIMATED. CREATED:
    16 JUN 07:52 2018

LIRQ B3650/18 AERODROME BEACON UNSERVICEABLE REF AIP AD 2 LIRQ
    1-6. 18 JUN 07:02 2018 UNTIL 10 SEP 23:59 2018 ESTIMATED.
    CREATED: 18 JUN 07:02 2018

LIRQ B3857/18 RUNWAY THRESHOLD INDENTIFICATION LIGHTS (RTIL)
    RWY05 UNSERVICEABLE REF AIP AD 2 LIRQ 1-6. 26 JUN 06:42 2018
    UNTIL 31 AUG 23:59 2018 ESTIMATED. CREATED: 26 JUN 06:42
    2018

LIRQ B3960/18 EDGE LIGHTS ON APRON 100, 200 AND 300 UNSERVICEABLE
    DUE TO WIP REF AIP AD 2 LIRQ 2-5. 28 JUN 21:51 2018 UNTIL
    24 SEP 22:59 2018 ESTIMATED. CREATED: 28 JUN 21:52 2018

LIRQ B4297/18 ACFT STANDS 201, 203 AND 206 MAX ACFT ALLOWED TYPE
    GLEX/RJ85. REF AIP AD 2 LIRQ 2-7. 17 JUL 08:47 2018 UNTIL
    14 OCT 21:59 2018 ESTIMATED. CREATED: 17 JUL 08:48 2018

LIRQ B4964/17 REF AIP AD 2 LIRQ 6-24 (AIP AIRAC AMDT 10/17 -
    EFFECTIVE DATE 9 NOV 2017) STANDARD INSTRUMENT DEPARTURE
    PROCEDURE PRT VOR RWY 05/23 MODIFY SID NAME TO READ MAREL
    5H INSTEAD OF MAREL 5C DUE TO A MISSPRINTING. 09 NOV 00:00
    2017 UNTIL PERM. CREATED: 03 OCT 09:37 2017

LIRQ B5189/17 REF AIP AD 2 LIRQ 4-23 (AIP AIRAC AMDT 10/17 -
    EFFECTIVE DATE 09 NOV 2017) STANDARD INSTRUMENT ARRIVAL PROCEDURE
    DESCRIPTION STAR PIS 2X (ATC DISCRETION) MODIFY MINIMUM CROSSING
    ALTITUDE AS FLW: PIS VOR/DME - RDL 099/15NM PIS VOR/DME (INT
    RDL 240 PRT VOR): 6000FT, RDL 099/15NM PIS VOR/DME (INT RDL
    240 PRT VOR) - GONGA: 5000FT. 09 NOV 00:00 2017 UNTIL PERM.
    CREATED: 13 OCT 09:36 2017

LIRQ B5193/17 REF AIP AD 2 LIRQ 4-21 AND 4-23 (AIP AIRAC AMDT
    10/17 - EFFECTIVE DATE 9 NOV 2017) STANDARD INSTRUMENT ARRIVAL
    PROCEDURE STAR AKUTO 1X SHALL BE CONSIDERED ATC DISCRETION
    INSTEAD OF FLIGHT PLANNABLE. 09 NOV 00:00 2017 UNTIL PERM.
    CREATED: 13 OCT 10:32 2017

---------------------------------------------------------------------------